Pagrindinis puslapis
METAR-TAF:

METAR-TAF

Oro uostai :

Anderson, Indiana, Jungtinės Amerikos Valstijos

platuma: 40-07N, ilguma: 085-37W, Aukštis: 280 m

Dabartinis oras

Ataskaita buvo paskelbta 28 minutes, ne 02:35 UTC
Vėjas 8 kt iš Pietvakarių
Temperatūra 21°C
Drėgmė 64%
Slėgis 1005 hPa
Matomumas: 16.1 km
Giedras dangus

METAR: KAID 080235Z AUTO 22008KT 10SM CLR 21/14 A2968 RMK AO2 LTG DSNT N T02060143

Laikas: 23:03 (03:03 UTC)


TAF: trūkstamas

Orai ataskaitas ir orų prognozės (METAR, TAF).

turimą stotys yra geltonos ir raudonos taškus žemėlapyje.

Perkelti pele per norėdami pamatyti stoties vardą.

Tada spustelėkite, norėdami matyti oro stebėjimo ir prognozės.

Norėdami pakeisti žemėlapį: spustelėkite ant žalios mygtukų su juodo kryžiaus žemyn,; žalią mygtuką su brūkšneliu, jei norite nutolinti; arba žalių rodyklių gretimoms žemėlapius.


METAR-TAF: